createdAt,value
2018-03-25T00:00:38.504Z,2.92
2018-03-25T00:01:38.491Z,2.72
2018-03-25T00:02:38.490Z,2.86
2018-03-25T00:03:38.474Z,2.82
2018-03-25T00:04:59.469Z,2.77
2018-03-25T00:05:38.455Z,2.68
2018-03-25T00:06:38.452Z,2.69
2018-03-25T00:07:38.443Z,2.65
2018-03-25T00:08:38.429Z,2.51
2018-03-25T00:09:38.418Z,2.49
2018-03-25T00:10:59.423Z,2.54
2018-03-25T00:11:38.413Z,2.47
2018-03-25T00:12:38.395Z,2.50
2018-03-25T00:13:38.385Z,2.46
2018-03-25T00:14:38.375Z,2.42
2018-03-25T00:15:38.382Z,2.29
2018-03-25T00:16:59.369Z,2.28
2018-03-25T00:17:38.349Z,2.26
2018-03-25T00:18:38.347Z,2.22
2018-03-25T00:19:38.342Z,2.15
2018-03-25T00:20:38.322Z,2.13
2018-03-25T00:21:38.325Z,2.18
2018-03-25T00:22:59.322Z,2.22
2018-03-25T00:23:38.298Z,2.15
2018-03-25T00:24:38.297Z,2.10
2018-03-25T00:25:38.287Z,1.99
2018-03-25T00:26:38.275Z,2.14
2018-03-25T00:27:38.259Z,2.13
2018-03-25T00:28:59.263Z,2.11
2018-03-25T00:29:38.245Z,2.14
2018-03-25T00:30:38.238Z,2.07
2018-03-25T00:31:38.229Z,2.04
2018-03-25T00:32:38.212Z,2.10
2018-03-25T00:33:38.213Z,2.10
2018-03-25T00:34:59.209Z,2.10
2018-03-25T00:35:38.190Z,2.10
2018-03-25T00:36:38.179Z,2.04
2018-03-25T00:37:38.176Z,2.07
2018-03-25T00:38:38.164Z,2.08
2018-03-25T00:39:38.155Z,2.02
2018-03-25T00:40:59.145Z,2.07
2018-03-25T00:41:38.132Z,2.00
2018-03-25T00:42:38.133Z,2.08
2018-03-25T00:43:38.123Z,2.04
2018-03-25T00:44:38.105Z,2.02
2018-03-25T00:45:38.102Z,2.06
2018-03-25T00:46:59.091Z,2.18
2018-03-25T00:47:38.081Z,2.15
2018-03-25T00:48:38.072Z,2.17
2018-03-25T00:49:38.069Z,2.04
2018-03-25T00:50:38.066Z,2.07
2018-03-25T00:51:38.049Z,2.07
2018-03-25T00:52:59.056Z,2.07
2018-03-25T00:53:38.027Z,2.04
2018-03-25T00:54:38.019Z,2.07
2018-03-25T00:55:38.008Z,2.04
2018-03-25T00:56:37.997Z,2.07
2018-03-25T00:57:37.989Z,2.07
2018-03-25T00:58:58.986Z,2.06
2018-03-25T00:59:37.970Z,2.07
2018-03-25T01:00:37.968Z,2.00
2018-03-25T01:01:37.956Z,2.07
2018-03-25T01:02:37.949Z,2.04
2018-03-25T01:03:37.932Z,2.06
2018-03-25T01:04:58.929Z,2.07
2018-03-25T01:05:37.908Z,2.02
2018-03-25T01:06:37.902Z,2.10
2018-03-25T01:07:37.917Z,1.99
2018-03-25T01:08:37.886Z,2.04
2018-03-25T01:09:37.877Z,2.06
2018-03-25T01:10:58.867Z,2.04
2018-03-25T01:11:37.859Z,1.94
2018-03-25T01:12:37.853Z,2.04
2018-03-25T01:13:37.838Z,2.10
2018-03-25T01:14:37.837Z,2.00
2018-03-25T01:15:37.824Z,2.08
2018-03-25T01:16:58.822Z,1.97
2018-03-25T01:17:37.802Z,1.95
2018-03-25T01:18:37.800Z,1.95
2018-03-25T01:19:37.782Z,1.92
2018-03-25T01:20:37.781Z,1.99
2018-03-25T01:21:37.764Z,1.89
2018-03-25T01:22:58.760Z,1.95
2018-03-25T01:23:37.754Z,1.99
2018-03-25T01:24:37.745Z,1.89
2018-03-25T01:25:37.725Z,1.97
2018-03-25T01:26:37.736Z,1.88
2018-03-25T01:27:37.717Z,1.94
2018-03-25T01:28:58.702Z,1.89
2018-03-25T01:29:37.686Z,1.88
2018-03-25T01:30:37.679Z,1.84
2018-03-25T01:31:37.677Z,1.87
2018-03-25T01:32:37.670Z,1.91
2018-03-25T01:33:37.649Z,1.88
2018-03-25T01:34:58.650Z,1.91
2018-03-25T01:35:37.637Z,1.91
2018-03-25T01:36:37.623Z,1.85
2018-03-25T01:37:37.620Z,1.80
2018-03-25T01:38:37.615Z,1.78
2018-03-25T01:39:37.599Z,1.84
2018-03-25T01:40:58.597Z,1.80
2018-03-25T01:41:37.576Z,1.81
2018-03-25T01:42:37.572Z,1.77
2018-03-25T01:43:37.560Z,1.73
2018-03-25T01:44:37.566Z,1.78
2018-03-25T01:45:37.544Z,1.77
2018-03-25T01:46:58.548Z,1.81
2018-03-25T01:47:37.531Z,1.71
2018-03-25T01:48:37.514Z,1.77
2018-03-25T01:49:37.508Z,1.81
2018-03-25T01:50:37.499Z,1.80
2018-03-25T01:51:37.480Z,1.74
2018-03-25T01:52:58.487Z,1.80
2018-03-25T01:53:37.455Z,1.80
2018-03-25T01:54:37.456Z,1.77
2018-03-25T01:55:37.450Z,1.78
2018-03-25T01:56:37.433Z,1.76
2018-03-25T01:57:37.428Z,1.77
2018-03-25T01:58:58.422Z,1.78
2018-03-25T01:59:37.411Z,1.77
2018-03-25T02:00:37.391Z,1.70
2018-03-25T02:01:37.397Z,1.73
2018-03-25T02:02:37.398Z,1.80
2018-03-25T02:03:37.368Z,1.74
2018-03-25T02:04:58.384Z,1.80
2018-03-25T02:05:37.370Z,1.76
2018-03-25T02:06:37.347Z,1.80
2018-03-25T02:07:37.330Z,1.77
2018-03-25T02:08:37.321Z,1.71
2018-03-25T02:09:37.329Z,1.71
2018-03-25T02:10:58.314Z,1.76
2018-03-25T02:11:37.299Z,1.76
2018-03-25T02:12:37.283Z,1.67
2018-03-25T02:13:37.277Z,1.78
2018-03-25T02:14:37.267Z,1.77
2018-03-25T02:15:37.263Z,1.77
2018-03-25T02:16:58.254Z,1.71
2018-03-25T02:17:37.242Z,1.74
2018-03-25T02:18:37.226Z,1.71
2018-03-25T02:19:37.228Z,1.74
2018-03-25T02:20:37.217Z,1.71
2018-03-25T02:21:37.198Z,1.73
2018-03-25T02:22:58.201Z,1.80
2018-03-25T02:23:37.178Z,1.80
2018-03-25T02:24:37.177Z,1.70
2018-03-25T02:25:37.163Z,1.85
2018-03-25T02:26:37.170Z,1.71
2018-03-25T02:27:37.146Z,1.85
2018-03-25T02:28:58.138Z,1.85
2018-03-25T02:29:37.130Z,1.81
2018-03-25T02:30:37.114Z,1.71
2018-03-25T02:31:37.112Z,1.85
2018-03-25T02:32:37.096Z,1.78
2018-03-25T02:33:37.086Z,1.76
2018-03-25T02:34:58.085Z,1.74
2018-03-25T02:35:37.078Z,1.78
2018-03-25T02:36:37.068Z,1.71
2018-03-25T02:37:37.055Z,1.74
2018-03-25T02:38:37.060Z,1.77
2018-03-25T02:39:37.051Z,1.70
2018-03-25T02:40:58.024Z,1.76
2018-03-25T02:41:37.024Z,1.74
2018-03-25T02:42:37.048Z,1.70
2018-03-25T02:43:36.998Z,1.67
2018-03-25T02:44:36.988Z,1.63
2018-03-25T02:45:36.974Z,1.60
2018-03-25T02:46:57.968Z,1.53
2018-03-25T02:47:36.966Z,1.56
2018-03-25T02:48:36.945Z,1.60
2018-03-25T02:49:36.944Z,1.56
2018-03-25T02:50:36.944Z,1.56
2018-03-25T02:51:36.931Z,1.62
2018-03-25T02:52:57.912Z,1.59
2018-03-25T02:53:36.916Z,1.50
2018-03-25T02:54:36.903Z,1.50
2018-03-25T02:55:36.913Z,1.50
2018-03-25T02:56:36.870Z,1.49
2018-03-25T02:57:36.879Z,1.49
2018-03-25T02:58:57.851Z,1.44
2018-03-25T02:59:36.838Z,1.50
2018-03-25T03:00:36.898Z,1.45
2018-03-25T03:01:36.828Z,1.45
2018-03-25T03:02:36.880Z,1.58
2018-03-25T03:03:36.804Z,1.48
2018-03-25T03:04:57.804Z,1.48
2018-03-25T03:05:36.795Z,1.44
2018-03-25T03:06:36.771Z,1.42
2018-03-25T03:07:36.762Z,1.37
2018-03-25T03:08:36.761Z,1.34
2018-03-25T03:09:36.740Z,1.28
2018-03-25T03:10:57.735Z,1.31
2018-03-25T03:11:36.725Z,1.30
2018-03-25T03:12:36.716Z,1.17
2018-03-25T03:13:36.710Z,1.19
2018-03-25T03:14:36.689Z,1.30
2018-03-25T03:15:36.676Z,1.28
2018-03-25T03:16:57.684Z,1.32
2018-03-25T03:17:36.660Z,1.37
2018-03-25T03:18:36.650Z,1.38
2018-03-25T03:19:36.641Z,1.41
2018-03-25T03:20:36.637Z,1.42
2018-03-25T03:21:36.632Z,1.41
2018-03-25T03:22:57.616Z,1.34
2018-03-25T03:23:36.606Z,1.34
2018-03-25T03:24:36.592Z,1.40
2018-03-25T03:25:36.593Z,1.34
2018-03-25T03:26:36.572Z,1.31
2018-03-25T03:27:36.561Z,1.30
2018-03-25T03:28:57.574Z,1.23
2018-03-25T03:29:36.548Z,1.32
2018-03-25T03:30:36.540Z,1.24
2018-03-25T03:31:36.525Z,1.22
2018-03-25T03:32:36.521Z,1.28
2018-03-25T03:33:36.498Z,1.35
2018-03-25T03:34:57.505Z,1.26
2018-03-25T03:35:36.488Z,1.20
2018-03-25T03:36:36.470Z,1.28
2018-03-25T03:37:36.474Z,1.24
2018-03-25T03:38:36.450Z,1.20
2018-03-25T03:39:36.444Z,1.22
2018-03-25T03:40:57.450Z,1.20
2018-03-25T03:41:36.425Z,1.23
2018-03-25T03:42:36.425Z,1.24
2018-03-25T03:43:36.406Z,1.26
2018-03-25T03:44:36.404Z,1.32
2018-03-25T03:45:36.391Z,1.37
2018-03-25T03:46:57.388Z,1.40
2018-03-25T03:47:36.375Z,1.38
2018-03-25T03:48:36.356Z,1.38
2018-03-25T03:49:36.356Z,1.49
2018-03-25T03:50:36.342Z,1.59
2018-03-25T03:51:36.328Z,1.60
2018-03-25T03:52:57.322Z,1.63
2018-03-25T03:53:36.309Z,1.55
2018-03-25T03:54:36.299Z,1.59
2018-03-25T03:55:36.287Z,1.56
2018-03-25T03:56:36.279Z,1.58
2018-03-25T03:57:36.269Z,1.60
2018-03-25T03:58:57.275Z,1.59
2018-03-25T03:59:36.306Z,1.74
2018-03-25T04:00:36.257Z,1.60
2018-03-25T04:01:36.237Z,1.74
2018-03-25T04:02:36.228Z,1.67
2018-03-25T04:03:36.209Z,1.70
2018-03-25T04:04:57.211Z,1.74
2018-03-25T04:05:36.198Z,1.68
2018-03-25T04:06:36.195Z,1.70
2018-03-25T04:07:36.180Z,1.74
2018-03-25T04:08:36.170Z,1.67
2018-03-25T04:09:36.151Z,1.71
2018-03-25T04:10:57.146Z,1.60
2018-03-25T04:11:36.137Z,1.63
2018-03-25T04:12:36.129Z,1.59
2018-03-25T04:13:36.116Z,1.63
2018-03-25T04:14:36.119Z,1.58
2018-03-25T04:15:36.100Z,1.59
2018-03-25T04:16:57.102Z,1.59
2018-03-25T04:17:36.082Z,1.56
2018-03-25T04:18:36.067Z,1.52
2018-03-25T04:19:36.063Z,1.49
2018-03-25T04:20:36.051Z,1.53
2018-03-25T04:21:36.040Z,1.45
2018-03-25T04:22:57.031Z,1.48
2018-03-25T04:23:36.021Z,1.48
2018-03-25T04:24:36.009Z,1.45
2018-03-25T04:25:36.034Z,1.48
2018-03-25T04:26:35.984Z,1.42
2018-03-25T04:27:35.981Z,1.41
2018-03-25T04:28:56.998Z,1.44
2018-03-25T04:29:35.964Z,1.42
2018-03-25T04:30:35.959Z,1.44
2018-03-25T04:31:35.941Z,1.44
2018-03-25T04:32:35.936Z,1.34
2018-03-25T04:33:35.923Z,1.37
2018-03-25T04:34:56.911Z,1.31
2018-03-25T04:35:35.900Z,1.44
2018-03-25T04:36:36.752Z,1.42
2018-03-25T04:37:35.880Z,1.44
2018-03-25T04:38:35.883Z,1.30
2018-03-25T04:39:35.868Z,1.32
2018-03-25T04:40:56.856Z,1.44
2018-03-25T04:41:36.710Z,1.35
2018-03-25T04:42:35.839Z,1.42
2018-03-25T04:43:35.830Z,1.48
2018-03-25T04:44:35.810Z,1.45
2018-03-25T04:45:35.807Z,1.58
2018-03-25T04:46:56.799Z,1.50
2018-03-25T04:47:35.785Z,1.59
2018-03-25T04:48:35.779Z,1.49
2018-03-25T04:49:35.767Z,1.49
2018-03-25T04:50:35.751Z,1.44
2018-03-25T04:51:36.619Z,1.49
2018-03-25T04:52:56.739Z,1.53
2018-03-25T04:53:35.726Z,1.48
2018-03-25T04:54:35.709Z,1.53
2018-03-25T04:55:35.701Z,1.60
2018-03-25T04:56:35.687Z,1.52
2018-03-25T04:57:35.698Z,1.59
2018-03-25T04:58:56.679Z,1.50
2018-03-25T04:59:35.669Z,1.50
2018-03-25T05:00:35.653Z,1.49
2018-03-25T05:01:35.649Z,1.48
2018-03-25T05:02:35.639Z,1.50
2018-03-25T05:03:35.628Z,1.44
2018-03-25T05:04:56.618Z,1.59
2018-03-25T05:05:35.625Z,1.59
2018-03-25T05:06:35.607Z,1.58
2018-03-25T05:07:35.586Z,1.55
2018-03-25T05:08:35.581Z,1.62
2018-03-25T05:09:35.563Z,1.50
2018-03-25T05:10:56.567Z,1.44
2018-03-25T05:11:35.548Z,1.50
2018-03-25T05:12:35.540Z,1.42
2018-03-25T05:13:35.534Z,1.45
2018-03-25T05:14:35.529Z,1.41
2018-03-25T05:15:35.514Z,1.37
2018-03-25T05:16:56.502Z,1.34
2018-03-25T05:17:35.496Z,1.32
2018-03-25T05:18:35.481Z,1.32
2018-03-25T05:19:35.470Z,1.38
2018-03-25T05:20:35.466Z,1.35
2018-03-25T05:21:35.530Z,1.30
2018-03-25T05:22:56.446Z,1.28
2018-03-25T05:23:35.475Z,1.24
2018-03-25T05:24:35.417Z,1.28
2018-03-25T05:25:35.466Z,1.26
2018-03-25T05:26:35.399Z,1.32
2018-03-25T05:27:35.389Z,1.38
2018-03-25T05:28:56.388Z,1.30
2018-03-25T05:29:35.368Z,1.45
2018-03-25T05:30:35.371Z,1.44
2018-03-25T05:31:35.349Z,1.45
2018-03-25T05:32:35.339Z,1.44
2018-03-25T05:33:35.334Z,1.50
2018-03-25T05:34:56.331Z,1.52
2018-03-25T05:35:35.316Z,1.49
2018-03-25T05:36:35.300Z,1.58
2018-03-25T05:37:35.284Z,1.59
2018-03-25T05:38:35.286Z,1.60
2018-03-25T05:39:35.268Z,1.62
2018-03-25T05:40:56.272Z,1.63
2018-03-25T05:41:35.256Z,1.67
2018-03-25T05:42:35.239Z,1.62
2018-03-25T05:43:35.230Z,1.63
2018-03-25T05:44:35.218Z,1.52
2018-03-25T05:45:35.211Z,1.58
2018-03-25T05:46:56.209Z,1.56
2018-03-25T05:47:35.202Z,1.56
2018-03-25T05:48:35.186Z,1.66
2018-03-25T05:49:35.174Z,1.55
2018-03-25T05:50:35.167Z,1.74
2018-03-25T05:51:35.144Z,1.76
2018-03-25T05:52:56.141Z,1.74
2018-03-25T05:53:35.131Z,1.73
2018-03-25T05:54:35.117Z,1.77
2018-03-25T05:55:35.107Z,1.70
2018-03-25T05:56:35.104Z,1.80
2018-03-25T05:57:35.094Z,1.87
2018-03-25T05:58:56.083Z,1.88
2018-03-25T05:59:35.069Z,1.88
2018-03-25T06:00:35.064Z,2.00
2018-03-25T06:01:35.062Z,1.92
2018-03-25T06:02:35.047Z,1.97
2018-03-25T06:03:35.035Z,1.97
2018-03-25T06:04:56.022Z,2.08
2018-03-25T06:05:35.007Z,2.10
2018-03-25T06:06:35.016Z,2.07
2018-03-25T06:07:35.002Z,2.08
2018-03-25T06:08:34.984Z,2.17
2018-03-25T06:09:34.974Z,2.13
2018-03-25T06:10:55.968Z,2.22
2018-03-25T06:11:34.963Z,2.24
2018-03-25T06:12:34.947Z,2.35
2018-03-25T06:13:34.940Z,2.39
2018-03-25T06:14:34.931Z,2.46
2018-03-25T06:15:34.926Z,2.43
2018-03-25T06:16:55.908Z,2.42
2018-03-25T06:17:34.895Z,2.44
2018-03-25T06:18:34.884Z,2.46
2018-03-25T06:19:34.886Z,2.53
2018-03-25T06:20:34.860Z,2.47
2018-03-25T06:21:34.856Z,2.62
2018-03-25T06:22:55.861Z,2.67
2018-03-25T06:23:34.845Z,2.69
2018-03-25T06:24:34.832Z,2.75
2018-03-25T06:25:34.814Z,2.77
2018-03-25T06:26:34.817Z,2.83
2018-03-25T06:27:34.797Z,2.83
2018-03-25T06:28:55.851Z,2.90
2018-03-25T06:29:34.783Z,2.90
2018-03-25T06:30:34.795Z,2.93
2018-03-25T06:31:34.761Z,3.01
2018-03-25T06:32:34.755Z,3.10
2018-03-25T06:33:34.747Z,3.19
2018-03-25T06:34:55.742Z,3.29
2018-03-25T06:35:34.725Z,3.23
2018-03-25T06:36:34.722Z,3.40
2018-03-25T06:37:34.714Z,3.36
2018-03-25T06:38:34.707Z,3.40
2018-03-25T06:39:34.687Z,3.40
2018-03-25T06:40:55.687Z,3.37
2018-03-25T06:41:34.672Z,3.41
2018-03-25T06:42:34.664Z,3.34
2018-03-25T06:43:34.651Z,3.41
2018-03-25T06:44:34.650Z,3.48
2018-03-25T06:45:34.635Z,3.55
2018-03-25T06:46:55.632Z,3.65
2018-03-25T06:47:34.617Z,3.63
2018-03-25T06:48:34.623Z,3.70
2018-03-25T06:49:34.598Z,3.74
2018-03-25T06:50:34.588Z,3.69
2018-03-25T06:51:34.580Z,3.81
2018-03-25T06:52:55.577Z,3.84
2018-03-25T06:53:34.556Z,3.88
2018-03-25T06:54:34.546Z,3.92
2018-03-25T06:55:34.539Z,3.88
2018-03-25T06:56:34.539Z,3.96
2018-03-25T06:57:34.518Z,4.10
2018-03-25T06:58:55.515Z,4.10
2018-03-25T06:59:34.505Z,4.12
2018-03-25T07:00:34.509Z,4.19
2018-03-25T07:01:34.487Z,4.12
2018-03-25T07:02:34.484Z,4.19
2018-03-25T07:03:34.462Z,4.20
2018-03-25T07:04:55.474Z,4.23
2018-03-25T07:05:34.444Z,4.26
2018-03-25T07:06:34.444Z,4.31
2018-03-25T07:07:34.443Z,4.35
2018-03-25T07:08:34.435Z,4.40
2018-03-25T07:09:34.417Z,4.42
2018-03-25T07:10:56.176Z,4.42
2018-03-25T07:11:34.399Z,4.44
2018-03-25T07:12:34.404Z,4.40
2018-03-25T07:13:34.369Z,4.55
2018-03-25T07:14:34.376Z,4.55
2018-03-25T07:15:34.356Z,4.55
2018-03-25T07:16:55.357Z,4.56
2018-03-25T07:17:34.345Z,4.60
2018-03-25T07:18:34.339Z,4.71
2018-03-25T07:19:34.337Z,4.68
2018-03-25T07:20:34.320Z,4.73
2018-03-25T07:21:34.309Z,4.74
2018-03-25T07:22:55.311Z,4.78
2018-03-25T07:23:34.292Z,4.89
2018-03-25T07:24:34.293Z,5.00
2018-03-25T07:25:34.284Z,4.87
2018-03-25T07:26:34.262Z,5.05
2018-03-25T07:27:34.256Z,5.00
2018-03-25T07:28:55.252Z,5.00
2018-03-25T07:29:34.247Z,4.96
2018-03-25T07:30:34.230Z,5.07
2018-03-25T07:31:34.224Z,5.00
2018-03-25T07:32:34.215Z,5.07
2018-03-25T07:33:34.199Z,5.21
2018-03-25T07:34:55.206Z,5.15
2018-03-25T07:35:34.181Z,5.17
2018-03-25T07:36:34.178Z,5.20
2018-03-25T07:37:34.171Z,5.30
2018-03-25T07:38:34.157Z,5.30
2018-03-25T07:39:34.158Z,5.35
2018-03-25T07:40:55.151Z,5.36
2018-03-25T07:41:34.130Z,5.43
2018-03-25T07:42:34.135Z,5.48
2018-03-25T07:43:34.139Z,5.57
2018-03-25T07:44:34.114Z,5.51
2018-03-25T07:45:34.098Z,5.65
2018-03-25T07:46:55.095Z,5.66
2018-03-25T07:47:34.087Z,5.68
2018-03-25T07:48:34.078Z,5.66
2018-03-25T07:49:34.071Z,5.73
2018-03-25T07:50:34.063Z,5.82
2018-03-25T07:51:34.050Z,5.89
2018-03-25T07:52:55.038Z,5.84
2018-03-25T07:53:34.032Z,5.97
2018-03-25T07:54:34.028Z,5.98
2018-03-25T07:55:34.017Z,5.93
2018-03-25T07:56:34.011Z,5.94
2018-03-25T07:57:33.990Z,6.04
2018-03-25T07:58:54.986Z,5.97
2018-03-25T07:59:33.981Z,6.17
2018-03-25T08:00:33.981Z,6.22
2018-03-25T08:01:33.973Z,6.19
2018-03-25T08:02:33.955Z,6.24
2018-03-25T08:03:33.948Z,6.26
2018-03-25T08:04:54.949Z,6.44
2018-03-25T08:05:33.928Z,6.39
2018-03-25T08:06:33.930Z,6.52
2018-03-25T08:07:33.918Z,6.49
2018-03-25T08:08:33.915Z,6.62
2018-03-25T08:09:33.912Z,6.60
2018-03-25T08:10:54.907Z,6.59
2018-03-25T08:11:33.897Z,6.59
2018-03-25T08:12:33.869Z,6.70
2018-03-25T08:13:33.878Z,6.60
2018-03-25T08:14:33.864Z,6.60
2018-03-25T08:15:33.847Z,6.72
2018-03-25T08:16:54.853Z,6.66
2018-03-25T08:17:33.834Z,6.64
2018-03-25T08:18:33.835Z,6.62
2018-03-25T08:19:33.813Z,6.69
2018-03-25T08:20:33.815Z,6.62
2018-03-25T08:21:33.820Z,6.70
2018-03-25T08:22:55.344Z,6.75
2018-03-25T08:23:33.784Z,6.64
2018-03-25T08:24:33.777Z,6.69
2018-03-25T08:25:33.768Z,6.74
2018-03-25T08:26:33.775Z,6.92
2018-03-25T08:27:33.762Z,6.85
2018-03-25T08:28:54.748Z,6.82
2018-03-25T08:29:33.746Z,6.96
2018-03-25T08:30:33.738Z,6.97
2018-03-25T08:31:33.716Z,7.03
2018-03-25T08:32:33.711Z,7.05
2018-03-25T08:33:33.703Z,7.03
2018-03-25T08:34:54.698Z,7.15
2018-03-25T08:35:33.680Z,7.13
2018-03-25T08:36:33.682Z,7.15
2018-03-25T08:37:33.666Z,7.21
2018-03-25T08:38:33.659Z,7.20
2018-03-25T08:39:33.667Z,7.20
2018-03-25T08:40:54.651Z,7.24
2018-03-25T08:41:33.642Z,7.23
2018-03-25T08:42:33.640Z,7.25
2018-03-25T08:43:33.622Z,7.31
2018-03-25T08:44:33.610Z,7.38
2018-03-25T08:45:33.617Z,7.40
2018-03-25T08:46:54.604Z,7.56
2018-03-25T08:47:33.598Z,7.58
2018-03-25T08:48:33.576Z,7.57
2018-03-25T08:49:33.581Z,7.48
2018-03-25T08:50:33.577Z,7.63
2018-03-25T08:51:33.571Z,7.63
2018-03-25T08:52:54.560Z,7.66
2018-03-25T08:53:33.548Z,7.66
2018-03-25T08:54:33.553Z,7.69
2018-03-25T08:55:33.535Z,7.77
2018-03-25T08:56:33.523Z,7.83
2018-03-25T08:57:33.515Z,7.79
2018-03-25T08:58:54.519Z,7.77
2018-03-25T08:59:33.510Z,7.83
2018-03-25T09:00:33.502Z,7.85
2018-03-25T09:01:33.487Z,7.90
2018-03-25T09:02:33.476Z,7.87
2018-03-25T09:03:33.467Z,7.85
2018-03-25T09:04:54.468Z,7.82
2018-03-25T09:05:33.450Z,7.85
2018-03-25T09:06:33.445Z,7.88
2018-03-25T09:07:33.445Z,7.97
2018-03-25T09:08:33.446Z,8.08
2018-03-25T09:09:33.431Z,8.24
2018-03-25T09:10:54.418Z,8.24
2018-03-25T09:11:33.408Z,8.30
2018-03-25T09:12:33.410Z,8.33
2018-03-25T09:13:33.397Z,8.38
2018-03-25T09:14:33.389Z,8.38
2018-03-25T09:15:33.375Z,8.37
2018-03-25T09:16:54.380Z,8.37
2018-03-25T09:17:33.365Z,8.41
2018-03-25T09:18:33.353Z,8.48
2018-03-25T09:19:33.346Z,8.44
2018-03-25T09:20:33.348Z,8.53
2018-03-25T09:21:33.336Z,8.56
2018-03-25T09:22:54.358Z,8.58
2018-03-25T09:23:33.316Z,8.73
2018-03-25T09:24:33.319Z,8.73
2018-03-25T09:25:33.304Z,8.73
2018-03-25T09:26:33.304Z,8.66
2018-03-25T09:27:33.293Z,8.73
2018-03-25T09:28:54.297Z,8.73
2018-03-25T09:29:33.270Z,8.78
2018-03-25T09:30:33.280Z,8.85
2018-03-25T09:31:33.269Z,8.82
2018-03-25T09:32:33.267Z,8.82
2018-03-25T09:33:33.243Z,8.88
2018-03-25T09:34:54.250Z,8.84
2018-03-25T09:35:33.230Z,8.91
2018-03-25T09:36:33.237Z,8.95
2018-03-25T09:37:33.216Z,8.94
2018-03-25T09:38:33.209Z,8.97
2018-03-25T09:39:33.212Z,9.03
2018-03-25T09:40:54.199Z,8.94
2018-03-25T09:41:33.187Z,9.16
2018-03-25T09:42:33.187Z,9.06
2018-03-25T09:43:33.189Z,9.10
2018-03-25T09:44:33.177Z,9.22
2018-03-25T09:45:33.163Z,9.22
2018-03-25T09:46:54.163Z,9.23
2018-03-25T09:47:33.157Z,9.22
2018-03-25T09:48:33.146Z,9.16
2018-03-25T09:49:33.134Z,9.21
2018-03-25T09:50:33.139Z,9.29
2018-03-25T09:51:33.115Z,9.28
2018-03-25T09:52:54.120Z,9.29
2018-03-25T09:53:33.108Z,9.41
2018-03-25T09:54:33.100Z,9.47
2018-03-25T09:55:33.110Z,9.46
2018-03-25T09:56:33.091Z,9.50
2018-03-25T09:57:33.089Z,9.62
2018-03-25T09:58:54.087Z,9.69
2018-03-25T09:59:33.072Z,9.80
2018-03-25T10:00:33.060Z,9.91
2018-03-25T10:01:33.050Z,10.01
2018-03-25T10:02:33.053Z,10.10
2018-03-25T10:03:33.036Z,10.10
2018-03-25T10:04:54.060Z,10.10
2018-03-25T10:05:33.036Z,10.07
2018-03-25T10:06:33.022Z,10.23
2018-03-25T10:07:33.032Z,10.25
2018-03-25T10:08:33.001Z,10.41
2018-03-25T10:09:33.003Z,10.26
2018-03-25T10:10:54.009Z,10.33
2018-03-25T10:11:33.039Z,10.20
2018-03-25T10:12:32.984Z,10.30
2018-03-25T10:13:32.984Z,10.25
2018-03-25T10:14:32.966Z,10.25
2018-03-25T10:15:32.977Z,10.33
2018-03-25T10:16:53.964Z,10.35
2018-03-25T10:17:32.947Z,10.25
2018-03-25T10:18:32.942Z,10.26
2018-03-25T10:19:32.940Z,10.42
2018-03-25T10:20:32.932Z,10.61
2018-03-25T10:21:33.170Z,10.61
2018-03-25T10:22:53.922Z,10.61
2018-03-25T10:23:32.904Z,10.71
2018-03-25T10:24:32.905Z,10.79
2018-03-25T10:25:32.904Z,10.86
2018-03-25T10:26:32.898Z,10.87
2018-03-25T10:27:32.879Z,10.84
2018-03-25T10:28:53.876Z,10.92
2018-03-25T10:29:32.881Z,10.97
2018-03-25T10:30:32.862Z,11.00
2018-03-25T10:31:32.882Z,10.94
2018-03-25T10:32:32.855Z,10.99
2018-03-25T10:33:32.851Z,10.92
2018-03-25T10:34:53.849Z,10.96
2018-03-25T10:35:32.843Z,11.05
2018-03-25T10:36:32.829Z,11.05
2018-03-25T10:37:32.828Z,11.05
2018-03-25T10:38:32.817Z,11.04
2018-03-25T10:39:32.829Z,11.11
2018-03-25T10:40:53.814Z,11.14
2018-03-25T10:41:32.798Z,11.18
2018-03-25T10:42:32.800Z,11.37
2018-03-25T10:43:32.781Z,11.33
2018-03-25T10:44:32.783Z,11.41
2018-03-25T10:45:32.767Z,11.35
2018-03-25T10:46:53.779Z,11.40
2018-03-25T10:47:32.772Z,11.40
2018-03-25T10:48:32.753Z,11.45
2018-03-25T10:49:32.763Z,11.44
2018-03-25T10:50:32.743Z,11.44
2018-03-25T10:51:32.742Z,11.52
2018-03-25T10:52:53.731Z,11.55
2018-03-25T10:53:32.723Z,11.72
2018-03-25T10:54:32.719Z,11.77
2018-03-25T10:55:32.712Z,11.75
2018-03-25T10:56:32.705Z,11.68
2018-03-25T10:57:32.708Z,11.87
2018-03-25T10:58:53.705Z,12.10
2018-03-25T10:59:32.695Z,12.04
2018-03-25T11:00:32.686Z,12.00
2018-03-25T11:01:32.679Z,12.20
2018-03-25T11:02:32.675Z,12.28
2018-03-25T11:03:32.663Z,12.25
2018-03-25T11:04:53.661Z,12.36
2018-03-25T11:05:32.656Z,12.31
2018-03-25T11:06:32.659Z,12.32
2018-03-25T11:07:32.653Z,12.32
2018-03-25T11:08:32.634Z,12.35
2018-03-25T11:09:32.639Z,12.32
2018-03-25T11:10:53.634Z,12.45
2018-03-25T11:11:32.618Z,12.42
2018-03-25T11:12:32.609Z,12.35
2018-03-25T11:13:32.610Z,12.36
2018-03-25T11:14:32.597Z,12.37
2018-03-25T11:15:32.601Z,12.40
2018-03-25T11:16:53.594Z,12.37
2018-03-25T11:17:32.584Z,12.32
2018-03-25T11:18:32.579Z,12.50
2018-03-25T11:19:32.567Z,12.70
2018-03-25T11:20:32.573Z,12.67
2018-03-25T11:21:32.571Z,12.67
2018-03-25T11:22:53.605Z,12.87
2018-03-25T11:23:32.563Z,13.00
2018-03-25T11:24:32.552Z,13.03
2018-03-25T11:25:32.538Z,13.12
2018-03-25T11:26:32.540Z,13.08
2018-03-25T11:27:32.542Z,12.97
2018-03-25T11:28:53.563Z,13.16
2018-03-25T11:29:32.527Z,13.23
2018-03-25T11:30:32.521Z,13.38
2018-03-25T11:31:32.512Z,13.53
2018-03-25T11:32:32.516Z,13.62
2018-03-25T11:33:32.500Z,13.56
2018-03-25T11:34:53.504Z,13.63
2018-03-25T11:35:32.491Z,13.72
2018-03-25T11:36:32.486Z,13.75
2018-03-25T11:37:32.484Z,13.77
2018-03-25T11:38:32.481Z,13.68
2018-03-25T11:39:32.476Z,13.62
2018-03-25T11:40:53.505Z,13.60
2018-03-25T11:41:32.475Z,13.65
2018-03-25T11:42:32.461Z,13.63
2018-03-25T11:43:32.463Z,13.67
2018-03-25T11:44:32.452Z,13.77
2018-03-25T11:45:32.479Z,13.72
2018-03-25T11:46:53.460Z,13.74
2018-03-25T11:47:32.461Z,13.86
2018-03-25T11:48:32.444Z,13.97
2018-03-25T11:49:32.447Z,14.08
2018-03-25T11:50:32.446Z,14.32
2018-03-25T11:51:32.435Z,14.40
2018-03-25T11:52:53.444Z,14.48
2018-03-25T11:53:32.437Z,14.08
2018-03-25T11:54:32.426Z,13.83
2018-03-25T11:55:32.430Z,14.05
2018-03-25T11:56:32.428Z,14.22
2018-03-25T11:57:32.432Z,14.41
2018-03-25T11:58:53.430Z,14.59
2018-03-25T11:59:32.421Z,14.51
2018-03-25T12:00:32.411Z,14.81
2018-03-25T12:01:33.414Z,14.69
2018-03-25T12:02:32.419Z,14.77
2018-03-25T12:03:32.412Z,14.70
2018-03-25T12:04:53.418Z,14.84
2018-03-25T12:05:32.414Z,14.92
2018-03-25T12:06:32.403Z,14.78
2018-03-25T12:07:32.408Z,14.45
2018-03-25T12:08:32.408Z,14.47
2018-03-25T12:09:32.404Z,14.77
2018-03-25T12:10:53.414Z,14.66
2018-03-25T12:11:32.393Z,14.30
2018-03-25T12:12:32.454Z,14.43
2018-03-25T12:13:32.394Z,14.63
2018-03-25T12:14:32.399Z,14.62
2018-03-25T12:15:32.396Z,14.82
2018-03-25T12:16:53.417Z,14.65
2018-03-25T12:17:32.392Z,14.68
2018-03-25T12:18:32.401Z,14.60
2018-03-25T12:19:32.401Z,14.84
2018-03-25T12:20:32.412Z,14.79
2018-03-25T12:21:32.381Z,15.06
2018-03-25T12:22:53.400Z,14.94
2018-03-25T12:23:32.378Z,15.03
2018-03-25T12:24:32.390Z,15.03
2018-03-25T12:25:32.378Z,15.28
2018-03-25T12:26:32.377Z,15.40
2018-03-25T12:27:32.380Z,15.55
2018-03-25T12:28:53.398Z,15.77
2018-03-25T12:29:32.377Z,15.88
2018-03-25T12:30:32.381Z,15.86
2018-03-25T12:31:32.373Z,16.20
2018-03-25T12:32:32.383Z,16.16
2018-03-25T12:33:32.382Z,16.36
2018-03-25T12:34:53.386Z,16.33
2018-03-25T12:35:32.370Z,16.28
2018-03-25T12:36:32.375Z,15.68
2018-03-25T12:37:32.371Z,15.36
2018-03-25T12:38:32.376Z,15.27
2018-03-25T12:39:32.388Z,15.17
2018-03-25T12:40:35.719Z,15.29
2018-03-25T12:41:43.772Z,15.43
2018-03-25T12:43:29.091Z,15.28
2018-03-25T12:44:29.077Z,15.18
2018-03-25T12:46:21.954Z,15.28
2018-03-25T12:47:21.960Z,15.31
2018-03-25T12:49:14.847Z,15.51
2018-03-25T12:50:14.824Z,15.61
2018-03-25T12:52:08.696Z,15.55
2018-03-25T12:53:08.693Z,15.70
2018-03-25T12:55:01.640Z,16.00
2018-03-25T12:56:01.560Z,15.90
2018-03-25T12:57:54.437Z,15.59
2018-03-25T12:58:54.436Z,15.79
2018-03-25T13:01:08.332Z,15.73
2018-03-25T13:01:47.308Z,15.94
2018-03-25T13:03:40.220Z,16.24
2018-03-25T13:04:40.208Z,15.91
2018-03-25T13:06:33.069Z,15.67
2018-03-25T13:07:33.064Z,15.64
2018-03-25T13:08:33.069Z,15.80
2018-03-25T13:09:33.061Z,16.17
2018-03-25T13:10:33.063Z,16.31
2018-03-25T13:11:33.060Z,16.50
2018-03-25T13:12:33.061Z,16.42
2018-03-25T13:13:33.059Z,16.65
2018-03-25T13:14:33.054Z,16.58
2018-03-25T13:15:33.056Z,16.26
2018-03-25T13:16:33.052Z,16.33
2018-03-25T13:17:33.054Z,15.90
2018-03-25T13:18:33.052Z,16.24
2018-03-25T13:19:33.048Z,16.50
2018-03-25T13:20:33.055Z,16.36